Time;durP1;ratioP1;P1;durP2;ratioP2;P2;SDS_P1;SDS_P2;PMS_P1;PMS_P2;Temp;Humidity;BMP_temperature;BMP_pressure;BME280_temperature;BME280_humidity;BME280_pressure;Samples;Min_cycle;Max_cycle;Signal;HPM_P1;HPM_P2
2021/11/14 00:01:46;;;;;;;8.73;3.13;;;12.60;99.90;;;;;;5061243;28;20008;-83
2021/11/14 00:04:12;;;;;;;10.15;3.80;;;12.60;99.90;;;;;;5060077;28;20036;-82
2021/11/14 00:06:39;;;;;;;7.40;3.25;;;12.60;99.90;;;;;;5058940;28;20024;-82
2021/11/14 00:09:05;;;;;;;8.63;3.33;;;12.50;99.90;;;;;;5059152;28;20043;-83
2021/11/14 00:11:31;;;;;;;8.82;3.50;;;12.50;99.90;;;;;;5058869;28;20020;-83
2021/11/14 00:13:58;;;;;;;10.15;3.92;;;12.40;99.90;;;;;;5058880;28;20027;-83
2021/11/14 00:16:26;;;;;;;7.00;3.38;;;12.40;99.90;;;;;;5059583;28;20024;-82
2021/11/14 00:18:52;;;;;;;11.45;3.60;;;12.30;99.90;;;;;;5058167;28;20108;-84
2021/11/14 00:21:21;;;;;;;10.73;3.65;;;12.30;99.90;;;;;;5058610;28;20453;-84
2021/11/14 00:23:46;;;;;;;6.20;3.42;;;12.20;99.90;;;;;;5058319;28;20024;-84
2021/11/14 00:26:12;;;;;;;8.32;3.75;;;12.20;99.90;;;;;;5058931;28;20074;-84
2021/11/14 00:28:45;;;;;;;9.52;3.35;;;12.10;99.90;;;;;;5059220;28;20019;-84
2021/11/14 00:31:14;;;;;;;8.27;3.70;;;12.10;99.90;;;;;;5056813;28;20493;-84
2021/11/14 00:33:43;;;;;;;9.88;3.60;;;12.10;99.90;;;;;;5061457;28;20016;-84
2021/11/14 00:36:15;;;;;;;6.40;3.22;;;12.10;99.90;;;;;;5057995;28;20074;-84
2021/11/14 00:38:41;;;;;;;8.65;3.55;;;12.00;99.90;;;;;;5056412;28;20035;-84
2021/11/14 00:41:07;;;;;;;10.57;3.40;;;12.00;99.90;;;;;;5058857;28;20013;-84
2021/11/14 00:43:34;;;;;;;12.75;3.55;;;11.90;99.90;;;;;;5059056;28;20021;-84
2021/11/14 00:46:01;;;;;;;15.77;3.45;;;11.80;99.90;;;;;;5058575;28;20106;-84
2021/11/14 00:48:27;;;;;;;11.27;3.33;;;11.80;99.90;;;;;;5058114;28;20509;-84
2021/11/14 00:50:53;;;;;;;8.68;2.95;;;11.80;99.90;;;;;;5058015;28;20037;-84
2021/11/14 00:53:19;;;;;;;9.27;3.08;;;11.80;99.90;;;;;;5058182;28;20389;-84
2021/11/14 00:55:47;;;;;;;8.68;3.28;;;11.80;99.90;;;;;;5040390;28;20052;-84
2021/11/14 00:58:13;;;;;;;13.23;3.42;;;11.80;99.90;;;;;;5061178;28;20013;-84
2021/11/14 01:00:39;;;;;;;9.60;3.35;;;11.80;99.90;;;;;;5059412;28;20115;-84
2021/11/14 01:03:07;;;;;;;9.73;3.17;;;11.70;99.90;;;;;;5061001;28;20018;-84
2021/11/14 01:05:34;;;;;;;11.20;3.30;;;11.70;99.90;;;;;;5059819;28;20033;-84
2021/11/14 01:08:02;;;;;;;7.40;3.42;;;11.70;99.90;;;;;;5058221;28;20021;-84
2021/11/14 01:10:33;;;;;;;11.63;4.22;;;11.60;99.90;;;;;;5056996;28;20016;-84
2021/11/14 01:12:59;;;;;;;8.73;3.25;;;11.60;99.90;;;;;;5058445;28;20558;-84
2021/11/14 01:15:27;;;;;;;12.40;4.43;;;11.60;99.90;;;;;;5059599;28;20029;-84
2021/11/14 01:17:53;;;;;;;7.85;3.08;;;11.60;99.90;;;;;;5058950;28;20028;-84
2021/11/14 01:20:29;;;;;;;9.48;3.53;;;11.60;99.90;;;;;;5057799;28;20039;-84
2021/11/14 01:22:57;;;;;;;9.00;3.85;;;11.50;99.90;;;;;;5040128;28;20477;-84
2021/11/14 01:25:22;;;;;;;10.70;3.22;;;11.50;99.90;;;;;;5058734;28;20047;-84
2021/11/14 01:27:49;;;;;;;10.75;3.97;;;11.50;99.90;;;;;;5059885;28;20384;-84
2021/11/14 01:30:18;;;;;;;8.52;3.50;;;11.50;99.90;;;;;;5058568;28;20035;-84
2021/11/14 01:32:45;;;;;;;10.80;4.43;;;11.40;99.90;;;;;;5058635;28;20027;-84
2021/11/14 01:35:12;;;;;;;10.90;4.25;;;11.40;99.90;;;;;;5059995;28;20033;-84
2021/11/14 01:37:42;;;;;;;13.52;4.47;;;11.40;99.90;;;;;;5059043;28;20490;-85
2021/11/14 01:40:10;;;;;;;10.45;3.92;;;11.30;99.90;;;;;;5059305;28;20378;-83
2021/11/14 01:42:36;;;;;;;9.82;4.07;;;11.30;99.90;;;;;;5040752;28;20363;-85
2021/11/14 01:45:02;;;;;;;10.65;3.83;;;11.30;99.90;;;;;;5061583;28;20112;-84
2021/11/14 01:47:28;;;;;;;9.68;3.90;;;11.40;99.90;;;;;;5063445;28;20410;-84
2021/11/14 01:49:53;;;;;;;10.32;3.75;;;11.50;99.90;;;;;;5062134;28;20021;-84
2021/11/14 01:52:21;;;;;;;7.25;4.03;;;11.50;99.90;;;;;;5064597;28;20023;-84
2021/11/14 01:54:47;;;;;;;10.40;4.47;;;11.60;99.90;;;;;;5066965;28;20013;-84
2021/11/14 01:57:13;;;;;;;11.50;4.30;;;11.60;99.90;;;;;;5062829;28;20059;-84
2021/11/14 01:59:39;;;;;;;9.82;4.07;;;11.50;99.90;;;;;;5062328;28;20504;-84
2021/11/14 02:02:06;;;;;;;7.60;4.65;;;11.60;99.90;;;;;;5061557;28;20024;-84
2021/11/14 02:04:32;;;;;;;8.85;4.78;;;11.60;99.90;;;;;;5043216;28;20020;-84
2021/11/14 02:06:57;;;;;;;10.90;4.22;;;11.60;99.90;;;;;;5061118;28;20039;-84
2021/11/14 02:09:23;;;;;;;9.18;4.50;;;11.60;99.90;;;;;;5066592;28;20048;-84
2021/11/14 02:11:49;;;;;;;12.70;4.03;;;11.70;99.90;;;;;;5063081;28;20028;-85
2021/11/14 02:14:14;;;;;;;11.93;3.78;;;11.70;99.90;;;;;;5061110;28;20095;-84
2021/11/14 02:16:40;;;;;;;12.25;4.65;;;11.70;99.90;;;;;;5042874;28;20079;-84
2021/11/14 02:19:09;;;;;;;14.50;4.32;;;11.80;99.90;;;;;;5061751;28;20020;-84
2021/11/14 02:21:35;;;;;;;10.05;4.15;;;11.70;99.90;;;;;;5063560;28;20460;-84
2021/11/14 02:24:02;;;;;;;11.05;4.30;;;11.70;99.90;;;;;;5061412;28;20016;-84
2021/11/14 02:26:29;;;;;;;10.07;3.85;;;11.80;99.90;;;;;;5061414;28;20112;-84
2021/11/14 02:28:55;;;;;;;9.65;4.20;;;11.80;99.90;;;;;;5061253;28;20079;-84
2021/11/14 02:31:23;;;;;;;15.48;4.05;;;11.80;99.90;;;;;;5065781;28;20368;-85
2021/11/14 02:33:50;;;;;;;11.75;4.20;;;11.80;99.90;;;;;;5061059;28;20037;-84
2021/11/14 02:36:16;;;;;;;10.48;3.42;;;11.80;99.90;;;;;;5060518;28;20017;-84
2021/11/14 02:38:43;;;;;;;10.48;3.97;;;11.80;99.90;;;;;;5062031;28;20052;-84
2021/11/14 02:41:09;;;;;;;12.45;4.20;;;11.80;99.90;;;;;;5058466;28;20024;-84
2021/11/14 02:43:36;;;;;;;13.13;4.57;;;11.80;99.90;;;;;;5062410;28;20542;-84
2021/11/14 02:46:03;;;;;;;12.70;3.90;;;11.90;99.90;;;;;;5060098;28;20052;-84
2021/11/14 02:48:29;;;;;;;9.98;4.38;;;11.80;99.90;;;;;;5062087;28;20096;-84
2021/11/14 02:50:57;;;;;;;10.27;4.28;;;11.80;99.90;;;;;;5062188;28;20017;-84
2021/11/14 02:53:23;;;;;;;8.65;3.83;;;11.90;99.90;;;;;;5063315;28;20012;-84
2021/11/14 02:55:50;;;;;;;9.75;4.00;;;11.90;99.90;;;;;;5060514;28;20466;-84
2021/11/14 02:58:18;;;;;;;9.27;4.38;;;11.90;99.90;;;;;;5061531;28;20013;-84
2021/11/14 03:01:00;;;;;;;11.88;3.90;;;11.90;99.90;;;;;;5062577;28;20021;-84
2021/11/14 03:03:26;;;;;;;12.88;4.82;;;11.90;99.90;;;;;;5058302;28;20040;-84
2021/11/14 03:05:53;;;;;;;8.43;3.95;;;11.80;99.90;;;;;;5061961;28;20029;-84
2021/11/14 03:08:18;;;;;;;7.50;4.45;;;11.90;99.90;;;;;;5060272;28;20043;-84
2021/11/14 03:10:44;;;;;;;12.50;4.53;;;11.90;99.90;;;;;;5060421;28;20024;-84
2021/11/14 03:13:13;;;;;;;12.80;4.80;;;11.90;99.90;;;;;;5062212;28;20030;-84
2021/11/14 03:15:43;;;;;;;8.80;4.60;;;11.80;99.90;;;;;;5060207;28;20031;-84
2021/11/14 03:18:09;;;;;;;11.10;4.55;;;11.90;99.90;;;;;;5062170;28;20009;-84
2021/11/14 03:20:37;;;;;;;11.55;4.95;;;11.90;99.90;;;;;;5060747;28;20021;-84
2021/11/14 03:23:04;;;;;;;10.55;4.65;;;11.90;99.90;;;;;;5060775;28;20147;-82
2021/11/14 03:25:31;;;;;;;12.40;4.70;;;11.80;99.90;;;;;;5060896;28;20029;-83
2021/11/14 03:27:58;;;;;;;10.77;4.85;;;11.80;99.90;;;;;;5062459;28;20402;-83
2021/11/14 03:30:25;;;;;;;12.90;5.43;;;11.80;99.90;;;;;;5059455;28;20588;-83
2021/11/14 03:32:52;;;;;;;13.70;4.93;;;11.80;99.90;;;;;;5061189;28;20024;-83
2021/11/14 03:35:19;;;;;;;10.15;4.30;;;11.70;99.90;;;;;;5059617;28;20040;-83
2021/11/14 03:37:45;;;;;;;9.60;4.45;;;11.80;99.90;;;;;;5060152;28;20024;-83
2021/11/14 03:40:13;;;;;;;8.73;4.40;;;11.70;99.90;;;;;;5059690;28;20124;-83
2021/11/14 03:42:39;;;;;;;12.57;5.15;;;11.70;99.90;;;;;;5059223;28;20020;-82
2021/11/14 03:45:07;;;;;;;13.82;4.32;;;11.80;99.90;;;;;;5061272;28;20107;-83
2021/11/14 03:47:33;;;;;;;11.05;4.40;;;11.80;99.90;;;;;;5057903;28;20036;-83
2021/11/14 03:49:58;;;;;;;11.70;4.43;;;11.70;99.90;;;;;;5059732;28;20021;-83
2021/11/14 03:52:24;;;;;;;8.82;4.53;;;11.70;99.90;;;;;;5060201;28;20025;-83
2021/11/14 03:54:50;;;;;;;15.02;5.05;;;11.60;99.90;;;;;;5061765;28;20017;-83
2021/11/14 03:57:16;;;;;;;13.43;4.28;;;11.60;99.90;;;;;;5058794;28;20481;-83
2021/11/14 03:59:42;;;;;;;10.35;4.35;;;11.60;99.90;;;;;;5058732;28;20409;-83
2021/11/14 04:02:07;;;;;;;11.68;4.28;;;11.60;99.90;;;;;;5060851;28;20040;-83
2021/11/14 04:04:33;;;;;;;10.05;4.45;;;11.70;99.90;;;;;;5056962;28;20067;-83
2021/11/14 04:06:59;;;;;;;12.48;4.38;;;11.80;99.90;;;;;;5057964;28;20041;-83
2021/11/14 04:09:26;;;;;;;9.80;4.22;;;11.80;99.90;;;;;;5059139;28;20095;-83
2021/11/14 04:11:53;;;;;;;16.50;4.70;;;11.70;99.90;;;;;;5059013;28;20420;-82
2021/11/14 04:14:19;;;;;;;7.80;4.18;;;11.70;99.90;;;;;;5056675;28;20571;-83
2021/11/14 04:16:45;;;;;;;9.98;4.40;;;11.70;99.90;;;;;;5060017;28;20032;-83
2021/11/14 04:19:12;;;;;;;6.18;3.53;;;11.70;99.90;;;;;;5060300;28;20398;-83
2021/11/14 04:21:38;;;;;;;6.60;3.60;;;11.80;99.90;;;;;;5058572;28;20081;-83
2021/11/14 04:24:05;;;;;;;8.32;4.07;;;11.70;99.90;;;;;;5062980;28;20021;-83
2021/11/14 04:26:30;;;;;;;8.15;4.25;;;11.70;99.90;;;;;;5059408;28;20553;-83
2021/11/14 04:28:56;;;;;;;8.55;3.67;;;11.80;99.90;;;;;;5059301;28;20105;-83
2021/11/14 04:31:22;;;;;;;9.93;3.47;;;11.80;99.90;;;;;;5058275;28;20397;-83
2021/11/14 04:33:47;;;;;;;12.18;3.67;;;11.70;99.90;;;;;;5058251;28;20070;-82
2021/11/14 04:36:14;;;;;;;6.85;4.03;;;11.70;99.90;;;;;;5058199;28;20440;-82
2021/11/14 04:38:40;;;;;;;8.25;3.30;;;11.70;99.90;;;;;;5060913;28;20021;-82
2021/11/14 04:41:05;;;;;;;6.85;3.80;;;11.70;99.90;;;;;;5047046;28;20392;-83
2021/11/14 04:43:31;;;;;;;8.82;3.53;;;11.60;99.90;;;;;;5064870;28;20013;-83
2021/11/14 04:45:57;;;;;;;8.45;4.00;;;11.60;99.90;;;;;;5062077;28;20474;-82
2021/11/14 04:48:24;;;;;;;10.07;4.13;;;11.60;99.90;;;;;;5058183;28;20024;-82
2021/11/14 04:50:50;;;;;;;7.65;4.03;;;11.60;99.90;;;;;;5058053;28;20025;-82
2021/11/14 04:53:16;;;;;;;11.60;3.67;;;11.60;99.90;;;;;;5039951;28;20017;-82
2021/11/14 04:55:42;;;;;;;7.05;4.55;;;11.70;99.90;;;;;;5058775;28;20082;-83
2021/11/14 04:58:10;;;;;;;7.03;3.70;;;11.60;99.90;;;;;;5059159;28;20394;-83
2021/11/14 05:00:46;;;;;;;9.85;4.20;;;11.60;99.90;;;;;;5058692;28;20016;-83
2021/11/14 05:03:13;;;;;;;9.15;4.30;;;11.50;99.90;;;;;;5058634;28;20493;-83
2021/11/14 05:05:41;;;;;;;7.40;4.40;;;11.60;99.90;;;;;;5058787;28;20116;-83
2021/11/14 05:08:07;;;;;;;7.75;4.20;;;11.60;99.90;;;;;;5059267;28;20115;-83
2021/11/14 05:10:33;;;;;;;8.63;4.55;;;11.60;99.90;;;;;;5058464;28;20533;-83
2021/11/14 05:13:00;;;;;;;10.27;4.32;;;11.60;99.90;;;;;;5058321;28;20039;-83
2021/11/14 05:15:26;;;;;;;10.02;4.47;;;11.50;99.90;;;;;;5060211;28;20040;-82
2021/11/14 05:17:51;;;;;;;8.85;4.10;;;11.50;99.90;;;;;;5058484;28;20017;-83
2021/11/14 05:20:17;;;;;;;8.13;4.40;;;11.50;99.90;;;;;;5061889;28;20055;-83
2021/11/14 05:22:43;;;;;;;7.75;4.60;;;11.60;99.90;;;;;;5062605;28;20020;-83
2021/11/14 05:25:09;;;;;;;8.40;4.18;;;11.50;99.90;;;;;;5062807;28;20031;-82
2021/11/14 05:27:35;;;;;;;9.88;4.25;;;11.50;99.90;;;;;;5062389;28;20036;-82
2021/11/14 05:30:01;;;;;;;8.50;4.70;;;11.50;99.90;;;;;;5062041;28;20029;-83
2021/11/14 05:32:28;;;;;;;10.38;4.60;;;11.50;99.90;;;;;;5062732;28;20393;-83
2021/11/14 05:34:54;;;;;;;8.63;4.47;;;11.40;99.90;;;;;;5062881;28;20021;-82
2021/11/14 05:37:19;;;;;;;7.60;4.13;;;11.50;99.90;;;;;;5061694;28;20024;-83
2021/11/14 05:39:45;;;;;;;11.43;4.95;;;11.50;99.90;;;;;;5063181;28;20036;-82
2021/11/14 05:42:11;;;;;;;12.13;5.10;;;11.50;99.90;;;;;;5064546;28;20017;-83
2021/11/14 05:44:37;;;;;;;8.80;4.78;;;11.50;99.90;;;;;;5062036;28;20048;-83
2021/11/14 05:47:03;;;;;;;11.40;4.72;;;11.50;99.90;;;;;;5062425;28;20087;-82
2021/11/14 05:49:29;;;;;;;7.85;4.45;;;11.50;99.90;;;;;;5064894;28;20233;-82
2021/11/14 05:51:54;;;;;;;10.18;4.63;;;11.50;99.90;;;;;;5065269;28;20021;-82
2021/11/14 05:54:20;;;;;;;10.43;5.07;;;11.60;99.90;;;;;;5062250;28;20044;-82
2021/11/14 05:56:46;;;;;;;8.15;4.20;;;11.50;99.90;;;;;;5062032;28;20033;-82
2021/11/14 06:01:51;;;;;;;11.52;4.93;;;11.60;99.90;;;;;;5064268;28;20016;-83
2021/11/14 06:06:46;;;;;;;8.93;5.00;;;11.50;99.90;;;;;;5061499;28;20029;-82
2021/11/14 06:09:11;;;;;;;12.18;5.47;;;11.50;99.90;;;;;;5062091;28;20024;-83
2021/11/14 06:11:37;;;;;;;11.40;5.43;;;11.50;99.90;;;;;;5063285;28;20024;-83
2021/11/14 06:14:04;;;;;;;7.70;5.20;;;11.50;99.90;;;;;;5061992;28;20497;-83
2021/11/14 06:16:29;;;;;;;8.10;4.85;;;11.50;99.90;;;;;;5061870;28;20078;-83
2021/11/14 06:18:56;;;;;;;9.88;6.28;;;11.50;99.90;;;;;;5063272;28;20432;-83
2021/11/14 06:21:23;;;;;;;6.22;4.63;;;11.40;99.90;;;;;;5061450;28;20036;-82
2021/11/14 06:23:49;;;;;;;8.25;4.90;;;11.40;99.90;;;;;;5062491;28;20104;-83
2021/11/14 06:26:15;;;;;;;8.85;4.93;;;11.50;99.90;;;;;;5060622;28;20036;-82
2021/11/14 06:28:41;;;;;;;10.80;4.97;;;11.40;99.90;;;;;;5045381;28;20025;-83
2021/11/14 06:31:07;;;;;;;9.35;5.15;;;11.40;99.90;;;;;;5043428;28;20036;-82
2021/11/14 06:33:32;;;;;;;10.25;5.60;;;11.40;99.90;;;;;;5060809;28;20016;-82
2021/11/14 06:35:58;;;;;;;9.38;5.40;;;11.40;99.90;;;;;;5062260;28;20017;-82
2021/11/14 06:38:24;;;;;;;8.48;4.57;;;11.40;99.90;;;;;;5061446;28;20517;-82
2021/11/14 06:40:50;;;;;;;11.15;5.32;;;11.50;99.90;;;;;;5063055;28;20013;-82
2021/11/14 06:43:15;;;;;;;8.77;4.82;;;11.50;99.90;;;;;;5061985;28;20388;-82
2021/11/14 06:45:41;;;;;;;8.65;4.78;;;11.40;99.90;;;;;;5043898;28;20437;-82
2021/11/14 06:48:07;;;;;;;12.07;5.45;;;11.50;99.90;;;;;;5062045;28;20029;-82
2021/11/14 06:50:33;;;;;;;6.25;4.63;;;11.50;99.90;;;;;;5060451;28;20096;-82
2021/11/14 06:52:58;;;;;;;9.52;5.50;;;11.50;99.90;;;;;;5061028;28;20025;-82
2021/11/14 06:55:24;;;;;;;7.15;5.13;;;11.50;99.90;;;;;;5061239;28;20024;-82
2021/11/14 06:57:50;;;;;;;8.05;5.55;;;11.50;99.90;;;;;;5061025;28;20083;-83
2021/11/14 07:00:20;;;;;;;12.52;5.57;;;11.50;99.90;;;;;;5060921;28;20024;-82
2021/11/14 07:02:46;;;;;;;12.48;5.55;;;11.50;99.90;;;;;;5061836;28;20020;-82
2021/11/14 07:05:13;;;;;;;9.88;5.25;;;11.50;99.90;;;;;;5060636;28;20016;-81
2021/11/14 07:07:39;;;;;;;7.75;4.28;;;11.50;99.90;;;;;;5060737;28;20569;-82
2021/11/14 07:10:07;;;;;;;8.90;5.57;;;11.50;99.90;;;;;;5061153;28;20024;-82
2021/11/14 07:12:35;;;;;;;9.90;5.43;;;11.50;99.90;;;;;;5060395;28;20016;-82
2021/11/14 07:15:01;;;;;;;11.40;5.20;;;11.50;99.90;;;;;;5060284;28;20028;-82
2021/11/14 07:17:26;;;;;;;10.38;5.20;;;11.50;99.90;;;;;;5042917;28;20396;-82
2021/11/14 07:19:53;;;;;;;8.68;5.55;;;11.50;99.90;;;;;;5060033;28;20029;-82
2021/11/14 07:22:19;;;;;;;9.73;5.80;;;11.50;99.90;;;;;;5059080;28;20416;-82
2021/11/14 07:24:46;;;;;;;14.00;5.43;;;11.50;99.90;;;;;;5060255;28;20021;-82
2021/11/14 07:27:12;;;;;;;14.07;5.32;;;11.50;99.90;;;;;;5057908;28;20134;-82
2021/11/14 07:29:37;;;;;;;8.93;5.45;;;11.50;99.90;;;;;;5059300;28;20505;-82
2021/11/14 07:32:03;;;;;;;13.48;5.63;;;11.50;99.90;;;;;;5061949;28;20056;-82
2021/11/14 07:34:29;;;;;;;11.05;6.10;;;11.50;99.90;;;;;;5059276;28;20393;-82
2021/11/14 07:36:55;;;;;;;7.50;5.32;;;11.50;99.90;;;;;;5059723;28;20032;-82
2021/11/14 07:39:20;;;;;;;7.97;4.97;;;11.50;99.90;;;;;;5062024;28;20031;-82
2021/11/14 07:41:46;;;;;;;10.45;5.40;;;11.50;99.90;;;;;;5060155;28;20439;-82
2021/11/14 07:44:12;;;;;;;9.55;5.15;;;11.60;99.90;;;;;;5063696;28;20017;-82
2021/11/14 07:46:38;;;;;;;12.93;6.43;;;11.60;99.90;;;;;;5061209;28;20599;-83
2021/11/14 07:49:04;;;;;;;8.45;5.93;;;11.60;99.90;;;;;;5059106;28;20025;-82
2021/11/14 07:51:30;;;;;;;7.40;4.82;;;11.50;99.90;;;;;;5059775;28;20017;-83
2021/11/14 07:53:58;;;;;;;12.85;5.97;;;11.60;99.90;;;;;;5064750;28;20035;-83
2021/11/14 07:56:24;;;;;;;9.65;5.72;;;11.60;99.90;;;;;;5059614;28;20028;-82
2021/11/14 07:58:49;;;;;;;8.68;5.60;;;11.70;99.90;;;;;;5059818;28;20081;-83
2021/11/14 08:01:15;;;;;;;10.52;6.10;;;11.70;99.90;;;;;;5059580;28;20017;-83
2021/11/14 08:03:41;;;;;;;8.93;5.65;;;11.70;99.90;;;;;;5060195;28;20588;-83
2021/11/14 08:06:07;;;;;;;8.98;5.82;;;11.70;99.90;;;;;;5063133;28;20029;-83
2021/11/14 08:08:33;;;;;;;9.98;6.63;;;11.80;99.90;;;;;;5059835;28;20370;-83
2021/11/14 08:10:58;;;;;;;7.78;5.70;;;11.70;99.90;;;;;;5059487;28;20024;-83
2021/11/14 08:13:24;;;;;;;10.25;5.88;;;11.80;99.90;;;;;;5040717;28;20036;-83
2021/11/14 08:15:50;;;;;;;10.30;5.90;;;11.80;99.90;;;;;;5061469;28;20138;-82
2021/11/14 08:18:17;;;;;;;7.38;5.60;;;11.90;99.90;;;;;;5059504;28;20075;-82
2021/11/14 08:20:44;;;;;;;12.15;5.82;;;11.80;99.90;;;;;;5059476;28;20070;-83
2021/11/14 08:23:10;;;;;;;9.63;6.22;;;11.80;99.90;;;;;;5059266;28;20436;-83
2021/11/14 08:25:36;;;;;;;11.02;6.18;;;11.80;99.90;;;;;;5059140;28;20067;-83
2021/11/14 08:28:04;;;;;;;9.73;5.63;;;12.00;99.90;;;;;;5058699;28;20446;-82
2021/11/14 08:30:29;;;;;;;12.00;5.65;;;12.10;99.90;;;;;;5058466;28;20059;-83
2021/11/14 08:32:56;;;;;;;10.30;5.68;;;12.10;99.90;;;;;;5059176;28;20432;-83
2021/11/14 08:35:22;;;;;;;8.82;5.55;;;12.20;99.90;;;;;;5060130;28;20380;-85
2021/11/14 08:37:50;;;;;;;10.63;5.50;;;12.10;99.90;;;;;;5061369;28;20385;-86
2021/11/14 08:40:17;;;;;;;10.63;5.82;;;12.10;99.90;;;;;;5057934;28;20016;-87
2021/11/14 08:42:43;;;;;;;12.13;5.82;;;12.10;99.90;;;;;;5058557;28;20041;-89
2021/11/14 08:45:10;;;;;;;10.35;5.68;;;12.10;99.90;;;;;;5024788;28;20141;-88
2021/11/14 08:47:36;;;;;;;10.98;6.35;;;12.10;99.90;;;;;;5009305;28;20513;-87
2021/11/14 08:50:03;;;;;;;9.48;5.70;;;12.10;99.90;;;;;;5009093;28;20112;-87
2021/11/14 08:52:29;;;;;;;6.50;5.78;;;12.20;99.90;;;;;;5010405;28;20037;-87
2021/11/14 08:54:55;;;;;;;13.18;7.00;;;12.30;99.90;;;;;;5009275;28;20060;-87
2021/11/14 08:57:21;;;;;;;12.98;6.75;;;12.30;99.90;;;;;;5010979;28;20026;-87
2021/11/14 08:59:48;;;;;;;8.35;6.07;;;12.30;99.90;;;;;;5011448;28;20395;-87
2021/11/14 09:02:14;;;;;;;11.43;6.78;;;12.40;99.90;;;;;;5012827;28;20030;-87
2021/11/14 09:04:41;;;;;;;10.43;5.95;;;12.40;99.90;;;;;;5020847;28;20306;-91
2021/11/14 09:07:07;;;;;;;8.20;5.25;;;12.40;99.90;;;;;;5019193;28;20180;-88
2021/11/14 09:09:34;;;;;;;9.65;5.63;;;12.50;99.90;;;;;;5022632;28;20089;-88
2021/11/14 09:12:01;;;;;;;12.27;5.63;;;12.50;99.90;;;;;;5022405;28;20214;-88
2021/11/14 09:14:26;;;;;;;7.43;5.72;;;12.40;99.90;;;;;;5014251;28;20029;-92
2021/11/14 09:16:53;;;;;;;8.23;5.43;;;12.40;99.90;;;;;;5018503;28;20034;-91
2021/11/14 09:19:20;;;;;;;10.20;5.45;;;12.50;99.90;;;;;;5015762;28;20109;-91
2021/11/14 09:21:46;;;;;;;9.00;5.45;;;12.50;99.90;;;;;;5021797;28;20064;-90
2021/11/14 09:24:12;;;;;;;7.97;5.50;;;12.60;99.90;;;;;;5023414;28;20022;-88
2021/11/14 09:26:38;;;;;;;7.72;5.10;;;12.60;99.90;;;;;;5022531;28;20168;-87
2021/11/14 09:29:05;;;;;;;8.38;5.47;;;12.60;99.90;;;;;;5011404;28;20021;-87
2021/11/14 09:31:32;;;;;;;8.57;5.57;;;12.70;99.90;;;;;;5011190;28;20628;-88
2021/11/14 09:33:58;;;;;;;9.95;5.38;;;12.60;99.90;;;;;;5011963;28;20021;-88
2021/11/14 09:36:30;;;;;;;8.38;5.40;;;12.70;99.90;;;;;;5012964;28;20394;-88
2021/11/14 09:38:58;;;;;;;11.40;5.20;;;12.80;99.90;;;;;;5015894;28;20106;-92
2021/11/14 09:41:24;;;;;;;8.48;5.00;;;12.90;99.90;;;;;;5015570;28;20085;-88
2021/11/14 09:43:52;;;;;;;11.10;7.80;;;13.00;99.90;;;;;;5013393;28;20026;-90
2021/11/14 09:46:18;;;;;;;15.25;10.90;;;13.10;99.90;;;;;;5054461;28;20509;-91
2021/11/14 09:48:44;;;;;;;10.45;7.15;;;13.20;99.90;;;;;;5049732;28;20025;-89
2021/11/14 09:51:10;;;;;;;18.17;14.15;;;13.20;99.90;;;;;;5065741;28;20025;-88
2021/11/14 09:53:37;;;;;;;10.07;7.60;;;13.10;99.90;;;;;;5062259;28;20073;-88
2021/11/14 09:56:06;;;;;;;9.80;7.05;;;13.10;99.90;;;;;;5073578;28;20009;-89
2021/11/14 09:58:32;;;;;;;6.85;5.47;;;13.10;99.90;;;;;;5084367;28;20005;-90
2021/11/14 10:00:59;;;;;;;9.63;4.88;;;13.20;99.90;;;;;;5082379;28;20036;-91
2021/11/14 10:03:25;;;;;;;7.88;4.75;;;13.20;99.90;;;;;;5067553;28;20008;-91
2021/11/14 10:05:51;;;;;;;6.82;4.50;;;13.30;99.90;;;;;;5066232;28;20040;-90
2021/11/14 10:08:19;;;;;;;7.47;3.92;;;13.30;99.90;;;;;;5072264;28;20016;-88
2021/11/14 10:10:53;;;;;;;8.55;3.88;;;13.20;99.90;;;;;;5091669;28;20024;-90
2021/11/14 10:13:23;;;;;;;6.07;4.28;;;13.30;99.90;;;;;;5070401;28;20017;-89
2021/11/14 10:15:56;;;;;;;5.75;4.30;;;13.20;99.90;;;;;;5067531;28;20016;-91
2021/11/14 10:18:22;;;;;;;5.43;4.07;;;13.30;99.90;;;;;;5073797;28;20005;-89
2021/11/14 10:20:58;;;;;;;7.43;4.40;;;13.30;99.90;;;;;;5086781;28;20264;-90
2021/11/14 10:23:25;;;;;;;9.63;4.03;;;13.30;99.90;;;;;;5086914;28;20008;-90
2021/11/14 10:25:52;;;;;;;9.32;4.38;;;13.30;99.90;;;;;;5067665;28;20020;-91
2021/11/14 10:28:19;;;;;;;8.30;4.25;;;13.40;99.90;;;;;;5085151;28;20031;-90
2021/11/14 10:30:47;;;;;;;9.63;4.60;;;13.50;99.90;;;;;;5064370;28;20033;-92
2021/11/14 10:33:16;;;;;;;6.55;4.15;;;13.50;99.90;;;;;;5053574;28;20017;-90
2021/11/14 10:35:44;;;;;;;6.55;3.67;;;13.50;99.90;;;;;;5044679;28;20108;-90
2021/11/14 10:38:14;;;;;;;6.18;3.83;;;13.50;99.90;;;;;;5045376;28;20043;-87
2021/11/14 10:40:43;;;;;;;8.73;4.63;;;13.50;99.90;;;;;;5066815;28;20043;-89
2021/11/14 10:43:08;;;;;;;8.32;3.70;;;13.60;99.90;;;;;;5063974;28;20027;-88
2021/11/14 10:45:38;;;;;;;8.82;6.25;;;13.60;99.90;;;;;;5065052;28;20123;-91
2021/11/14 10:48:09;;;;;;;9.40;6.65;;;13.60;99.90;;;;;;5063084;28;20055;-89
2021/11/14 10:50:41;;;;;;;7.20;3.92;;;13.60;99.90;;;;;;5067514;28;20114;-90
2021/11/14 10:53:12;;;;;;;14.07;8.55;;;13.60;99.90;;;;;;5039841;28;20486;-90
2021/11/14 10:55:54;;;;;;;12.63;8.20;;;13.70;99.90;;;;;;5044422;28;20032;-92
2021/11/14 10:58:26;;;;;;;7.35;4.55;;;13.70;99.90;;;;;;5058224;28;20116;-92
2021/11/14 11:00:58;;;;;;;8.52;4.40;;;13.70;99.90;;;;;;5041726;28;20020;-89
2021/11/14 11:03:33;;;;;;;10.35;3.90;;;13.80;99.90;;;;;;5040112;28;20033;-91
2021/11/14 11:06:04;;;;;;;7.68;3.63;;;13.80;99.90;;;;;;5052611;28;20057;-91
2021/11/14 11:08:31;;;;;;;10.00;3.65;;;13.70;99.90;;;;;;5058257;28;20030;-94
2021/11/14 11:11:00;;;;;;;7.65;3.53;;;13.60;99.90;;;;;;5043701;28;20023;-92
2021/11/14 11:13:30;;;;;;;9.10;3.25;;;13.70;99.90;;;;;;5035810;28;20579;-91
2021/11/14 11:16:05;;;;;;;6.25;3.05;;;13.70;99.90;;;;;;5068546;28;20024;-92
2021/11/14 11:18:32;;;;;;;7.20;3.10;;;13.80;99.90;;;;;;5061535;28;20039;-94
2021/11/14 11:20:58;;;;;;;9.48;3.08;;;13.90;99.90;;;;;;5047398;28;20017;-90
2021/11/14 11:23:25;;;;;;;9.65;3.47;;;14.10;99.90;;;;;;5047198;28;20114;-90
2021/11/14 11:25:57;;;;;;;6.35;2.97;;;14.20;99.90;;;;;;5044211;28;20047;-93
2021/11/14 11:28:25;;;;;;;6.95;2.50;;;14.30;99.90;;;;;;5044525;28;20029;-92
2021/11/14 11:31:00;;;;;;;4.82;2.80;;;14.30;99.90;;;;;;5044240;28;20024;-92
2021/11/14 11:33:29;;;;;;;10.23;2.90;;;14.30;99.90;;;;;;5043106;28;20025;-93
2021/11/14 11:35:55;;;;;;;6.82;2.75;;;14.30;99.90;;;;;;5056366;28;20031;-91
2021/11/14 11:38:24;;;;;;;5.88;2.50;;;14.30;99.90;;;;;;5037554;28;20025;-95
2021/11/14 11:40:51;;;;;;;7.53;2.83;;;14.40;99.90;;;;;;5036386;28;20025;-92
2021/11/14 11:43:17;;;;;;;7.28;3.25;;;14.40;99.90;;;;;;5038201;28;20591;-93
2021/11/14 11:45:44;;;;;;;6.40;3.15;;;14.40;99.90;;;;;;5035499;28;20296;-91
2021/11/14 11:48:21;;;;;;;6.32;2.75;;;14.40;99.90;;;;;;5053352;28;20036;-93
2021/11/14 11:50:49;;;;;;;8.35;3.15;;;14.40;99.90;;;;;;5034365;28;20029;-91
2021/11/14 11:53:25;;;;;;;6.43;2.85;;;14.50;99.90;;;;;;5038742;28;20206;-92
2021/11/14 11:56:10;;;;;;;7.28;3.25;;;14.40;99.90;;;;;;5050737;28;20498;-94
2021/11/14 11:58:56;;;;;;;9.20;3.45;;;14.50;99.90;;;;;;5015260;28;20030;-93
2021/11/14 12:01:33;;;;;;;8.27;3.40;;;14.40;99.90;;;;;;5014319;28;20040;-91
2021/11/14 12:04:12;;;;;;;7.63;2.90;;;14.60;99.90;;;;;;5032109;28;20108;-90
2021/11/14 12:06:45;;;;;;;6.20;2.60;;;14.70;99.90;;;;;;5014272;28;20030;-91
2021/11/14 12:09:13;;;;;;;9.25;3.30;;;14.90;99.90;;;;;;5014382;28;20026;-92
2021/11/14 12:11:42;;;;;;;8.77;3.08;;;15.00;99.90;;;;;;5014586;28;20087;-91
2021/11/14 12:14:21;;;;;;;7.90;2.88;;;14.90;99.90;;;;;;5031854;28;20585;-91
2021/11/14 12:17:02;;;;;;;9.52;3.40;;;14.80;99.90;;;;;;5013841;28;20025;-91
2021/11/14 12:19:34;;;;;;;10.13;4.07;;;14.70;99.90;;;;;;5031849;28;20084;-94
2021/11/14 12:22:22;;;;;;;7.93;3.33;;;14.60;99.90;;;;;;5031987;28;20068;-93
2021/11/14 12:24:57;;;;;;;8.25;3.42;;;14.50;99.90;;;;;;5013728;28;20398;-91
2021/11/14 12:27:35;;;;;;;6.88;2.97;;;14.50;99.90;;;;;;5014019;28;20468;-95
2021/11/14 12:30:10;;;;;;;6.57;2.90;;;14.60;99.90;;;;;;5032274;28;20049;-93
2021/11/14 12:32:45;;;;;;;7.28;3.45;;;14.70;99.90;;;;;;5014401;28;20494;-91
2021/11/14 12:35:23;;;;;;;9.32;3.38;;;14.80;99.90;;;;;;5014444;28;20029;-91
2021/11/14 12:37:53;;;;;;;11.13;3.13;;;14.80;99.90;;;;;;5026094;28;20043;-92
2021/11/14 12:40:25;;;;;;;8.82;3.60;;;14.70;99.90;;;;;;5033407;28;20390;-93
2021/11/14 12:43:04;;;;;;;8.02;3.03;;;14.70;99.90;;;;;;5051422;28;20056;-91
2021/11/14 12:45:30;;;;;;;7.15;4.47;;;14.70;99.90;;;;;;5033500;28;20036;-90
2021/11/14 12:47:58;;;;;;;13.95;5.60;;;14.80;99.90;;;;;;5051476;28;20052;-90
2021/11/14 12:50:30;;;;;;;8.93;4.43;;;14.90;99.90;;;;;;5033559;28;20513;-91